Boaz, AL

6:59 PM CDT on March 26, 2015 (GMT -0500)
Double Bridges | | Change Station
CLOSE
Current Station
Personal Weather Station
Location: Boaz, AL
Elevation: 1066 ft
Nearby Weather Stations

Elev 1066 ft 34.22 °N, 86.13 °W | Updated 7 minutes ago

Mostly Cloudy
Mostly Cloudy
64.6 °F
Feels Like 64.6 °F
N
18.1
Wind Variable Wind from West

Today
High -- | Low -- °F
--% Chance of Precip.
Yesterday
High -- | Low -- °F
Precip. -- in
6:40 AM 7:00 PM
Waxing Crescent, 47% visible
Pressure 29.77 in
Visibility 10.0 miles
Clouds Scattered Clouds 4800 ft
Scattered Clouds 5500 ft
Scattered Clouds 9500 ft
Dew Point 55 °F
Humidity 72%
Rainfall 0.00 in
Snow Depth Not available.
UV 0 out of 12
Pollen 8.60 out of 12
Air Quality Not available.
Flu Activity Not available.
METAR K8A0 262335Z AUTO 27008KT 10SM SCT048 SCT055 SCT095 21/15 A2977 RMK AO2 LTG DSNT S

More Conditions Fewer Conditions

Pressure 29.77 in
Visibility 10.0 miles
Clouds Scattered Clouds 4800 ft
Scattered Clouds 5500 ft
Scattered Clouds 9500 ft
Dew Point 55 °F
Humidity 72%
Rainfall 0.00 in
Snow Depth Not available.
UV 0 out of 12
Pollen 8.60 out of 12
Air Quality Not available.
Flu Activity Not available.
METAR K8A0 262335Z AUTO 27008KT 10SM SCT048 SCT055 SCT095 21/15 A2977 RMK AO2 LTG DSNT S

More Conditions Fewer Conditions

10-Day Weather Forecast

Almanac

Astronomy

Mar. 26, 2015 Rise Set
Actual Time
Civil Twilight
Nautical Twilight
Astronomical Twilight
Moon
Length of Visible Light
Length of Day
Tomorrow will be .
, % of the Moon is Illuminated

Today's Extremes

State Highs State Lows

Community

WunderPhotos

Upload Photos

1,808,643 photos uploaded!

WunderBlogs® & News

Nearby

Air Quality

  Air Quality AQ Index Pollutant
Not available.

Snow Depth

Station Depth Elevation

Earthquake Activity

City Distance Mag. Time & Date
Minimum magnitude displayed is 2.5.

Coastal Water Temperatures

Place Temperature

Stations

Nearby Weather Stations

Station Location Temp. Windchill Dew Point Humidity Wind Precip. Elev Updated Type